Time;durP1;ratioP1;P1;durP2;ratioP2;P2;SDS_P1;SDS_P2;PMS_P1;PMS_P2;Temp;Humidity;BMP_temperature;BMP_pressure;BME280_temperature;BME280_humidity;BME280_pressure;Samples;Min_cycle;Max_cycle;Signal;HPM_P1;HPM_P2
2023/03/09 00:00:38;;;;;;;96.10;53.40;;;;;;;3.58;81.94;98081.36;130165;1255;114747;-70
2023/03/09 00:03:56;;;;;;;91.70;51.50;;;;;;;3.60;81.90;98077.57;130142;1258;114722;-70
2023/03/09 00:06:59;;;;;;;101.10;54.20;;;;;;;3.60;82.00;98072.06;130107;1255;114763;-70
2023/03/09 00:10:09;;;;;;;99.30;54.60;;;;;;;3.62;82.05;98074.64;130008;1259;115215;-71
2023/03/09 00:13:11;;;;;;;95.10;50.90;;;;;;;3.62;82.15;98078.30;130200;1254;114725;-71
2023/03/09 00:16:17;;;;;;;102.30;54.30;;;;;;;3.62;82.03;98074.97;129965;1257;115495;-71
2023/03/09 00:19:26;;;;;;;93.40;54.00;;;;;;;3.60;82.05;98073.12;130263;1255;114734;-70
2023/03/09 00:22:28;;;;;;;89.40;52.80;;;;;;;3.60;82.13;98071.73;130191;1272;129035;-73
2023/03/09 00:25:32;;;;;;;95.20;55.20;;;;;;;3.58;82.17;98076.02;130169;1277;114738;-71
2023/03/09 00:28:35;;;;;;;92.40;53.70;;;;;;;3.59;82.23;98081.30;130201;1259;114721;-71
2023/03/09 00:31:37;;;;;;;96.40;54.90;;;;;;;3.61;82.27;98081.38;129991;1254;114900;-71
2023/03/09 00:34:39;;;;;;;87.80;53.00;;;;;;;3.63;82.41;98075.09;130136;1254;114777;-71
2023/03/09 00:37:43;;;;;;;88.00;52.40;;;;;;;3.64;82.27;98075.36;130225;1255;114763;-71
2023/03/09 00:40:46;;;;;;;80.20;49.60;;;;;;;3.65;82.31;98078.16;130140;1274;128794;-69
2023/03/09 00:43:49;;;;;;;85.80;51.90;;;;;;;3.65;82.25;98080.08;130121;1255;114736;-69
2023/03/09 00:46:51;;;;;;;87.00;52.20;;;;;;;3.64;82.22;98080.84;130184;1269;114731;-70
2023/03/09 00:49:53;;;;;;;91.10;53.40;;;;;;;3.61;82.54;98073.95;130190;1259;115234;-71
2023/03/09 00:52:55;;;;;;;92.10;54.10;;;;;;;3.57;82.32;98069.04;130235;1259;114737;-71
2023/03/09 00:56:01;;;;;;;87.10;51.10;;;;;;;3.53;82.44;98068.79;130159;1254;114752;-70
2023/03/09 00:59:04;;;;;;;92.80;56.20;;;;;;;3.49;82.38;98068.62;130207;1258;128965;-72
2023/03/09 01:02:07;;;;;;;83.30;50.90;;;;;;;3.47;82.51;98067.36;130306;1259;114781;-70
2023/03/09 01:05:10;;;;;;;80.50;48.10;;;;;;;3.43;82.67;98065.61;130173;1254;115396;-71
2023/03/09 01:08:13;;;;;;;78.80;43.90;;;;;;;3.41;82.56;98060.42;130200;1259;114840;-71
2023/03/09 01:11:17;;;;;;;70.90;44.50;;;;;;;3.39;82.84;98055.44;130200;1275;114649;-71
2023/03/09 01:14:19;;;;;;;65.50;41.60;;;;;;;3.37;82.71;98051.67;130035;1277;114784;-71
2023/03/09 01:17:24;;;;;;;65.30;39.00;;;;;;;3.33;82.74;98046.91;129990;1254;115246;-71
2023/03/09 01:20:28;;;;;;;68.90;40.70;;;;;;;3.30;82.70;98041.64;130158;1260;115201;-73
2023/03/09 01:23:31;;;;;;;68.20;39.60;;;;;;;3.26;82.64;98029.88;130206;1259;114842;-70
2023/03/09 01:26:36;;;;;;;63.80;38.70;;;;;;;3.23;82.76;98025.83;129767;1274;283878;-70
2023/03/09 01:29:40;;;;;;;66.30;39.60;;;;;;;3.20;82.91;98011.17;130187;1259;114737;-70
2023/03/09 01:32:44;;;;;;;70.30;39.00;;;;;;;3.17;82.92;98019.41;129953;1254;127724;-70
2023/03/09 01:35:47;;;;;;;69.20;40.40;;;;;;;3.13;83.03;98016.31;130177;1259;114785;-71
2023/03/09 01:38:49;;;;;;;67.50;39.70;;;;;;;3.08;83.06;98011.83;130145;1259;115529;-70
2023/03/09 01:41:51;;;;;;;78.30;43.40;;;;;;;3.06;83.07;98017.04;130296;1259;115132;-72
2023/03/09 01:45:25;;;;;;;74.40;42.40;;;;;;;3.05;83.18;98013.08;130256;1259;114848;-71
2023/03/09 01:48:28;;;;;;;78.60;43.10;;;;;;;3.01;83.29;98015.00;129759;1257;114918;-73
2023/03/09 01:51:45;;;;;;;81.30;44.10;;;;;;;3.00;83.10;98016.15;129829;1261;114843;-70
2023/03/09 01:54:55;;;;;;;74.00;42.70;;;;;;;2.99;83.39;98011.97;129963;1279;114781;-72
2023/03/09 01:58:06;;;;;;;75.60;43.60;;;;;;;2.97;83.33;98004.52;130130;1262;114684;-70
2023/03/09 02:01:09;;;;;;;81.00;42.40;;;;;;;2.95;83.49;97995.46;129932;1262;114966;-70
2023/03/09 02:04:19;;;;;;;81.50;44.60;;;;;;;2.93;83.40;98002.05;130045;1279;114732;-72
2023/03/09 02:07:22;;;;;;;77.90;44.60;;;;;;;2.93;83.54;98004.38;129874;1258;127918;-74
2023/03/09 02:10:34;;;;;;;73.60;42.30;;;;;;;2.93;83.55;97998.20;130015;1256;114726;-74
2023/03/09 02:13:46;;;;;;;77.50;43.40;;;;;;;2.91;83.52;97997.40;129938;1261;114791;-71
2023/03/09 02:16:48;;;;;;;78.40;43.20;;;;;;;2.88;83.54;97993.69;129875;1259;115065;-71
2023/03/09 02:20:12;;;;;;;76.30;42.50;;;;;;;2.86;83.59;97992.77;129836;1277;114852;-74
2023/03/09 02:23:41;;;;;;;84.80;45.50;;;;;;;2.84;83.55;97998.69;129988;1262;128673;-71
2023/03/09 02:26:48;;;;;;;75.30;41.10;;;;;;;2.83;83.50;97991.17;129792;1263;116556;-75
2023/03/09 02:29:50;;;;;;;74.40;42.80;;;;;;;2.82;83.60;97990.88;129762;1265;114741;-73
2023/03/09 02:33:06;;;;;;;75.50;41.90;;;;;;;2.80;83.62;97994.52;129883;1260;114798;-74
2023/03/09 02:36:08;;;;;;;77.80;43.80;;;;;;;2.79;83.67;97997.20;129971;1279;114734;-71
2023/03/09 02:39:37;;;;;;;80.70;44.00;;;;;;;2.77;83.81;97999.41;129932;1257;114823;-71
2023/03/09 02:42:40;;;;;;;83.00;43.30;;;;;;;2.77;83.74;97998.55;129717;1264;115295;-73
2023/03/09 02:45:46;;;;;;;74.90;42.30;;;;;;;2.76;83.72;98000.91;130149;1260;115141;-70
2023/03/09 02:48:48;;;;;;;77.80;41.80;;;;;;;2.73;83.89;97998.41;129771;1262;116455;-72
2023/03/09 02:51:50;;;;;;;79.50;43.50;;;;;;;2.71;83.82;98003.60;129943;1257;114760;-71
2023/03/09 02:54:52;;;;;;;73.60;41.40;;;;;;;2.70;83.64;98007.02;129952;1257;115211;-71
2023/03/09 02:57:54;;;;;;;70.20;40.00;;;;;;;2.69;83.89;98005.67;129716;1263;126919;-71
2023/03/09 03:00:57;;;;;;;81.80;44.40;;;;;;;2.67;84.13;98005.61;129853;1262;114729;-71
2023/03/09 03:03:59;;;;;;;77.30;42.20;;;;;;;2.64;83.89;98002.27;129920;1260;115425;-72
2023/03/09 03:07:01;;;;;;;74.30;41.30;;;;;;;2.62;83.96;98000.94;129848;1262;114808;-71
2023/03/09 03:10:04;;;;;;;81.40;40.90;;;;;;;2.61;84.20;97998.88;129895;1256;115248;-72
2023/03/09 03:13:06;;;;;;;74.30;40.00;;;;;;;2.58;84.19;97999.03;130045;1257;115255;-71
2023/03/09 03:16:08;;;;;;;75.10;40.50;;;;;;;2.55;84.15;97997.06;130137;1256;114776;-73
2023/03/09 03:19:11;;;;;;;85.00;43.20;;;;;;;2.54;84.25;97988.13;130173;1262;127482;-71
2023/03/09 03:22:13;;;;;;;73.30;38.60;;;;;;;2.55;84.14;97987.94;129914;1280;115260;-72
2023/03/09 03:25:16;;;;;;;85.70;43.30;;;;;;;2.53;84.27;97990.64;129997;1276;114803;-72
2023/03/09 03:28:18;;;;;;;81.90;41.40;;;;;;;2.51;84.24;97988.84;129878;1256;115357;-71
2023/03/09 03:31:20;;;;;;;83.30;41.20;;;;;;;2.49;84.44;97985.58;130061;1256;114797;-74
2023/03/09 03:34:23;;;;;;;76.80;40.20;;;;;;;2.47;84.44;97987.98;130017;1256;114735;-72
2023/03/09 03:37:25;;;;;;;78.00;41.50;;;;;;;2.48;84.61;97986.91;129922;1262;114812;-69
2023/03/09 03:40:27;;;;;;;85.60;41.90;;;;;;;2.48;84.43;97982.16;129863;1262;115412;-70
2023/03/09 03:43:29;;;;;;;77.10;42.60;;;;;;;2.48;84.45;97982.30;129829;1258;114750;-71
2023/03/09 03:46:31;;;;;;;83.50;44.00;;;;;;;2.49;84.61;97981.20;129786;1256;114649;-72
2023/03/09 03:49:34;;;;;;;71.50;38.50;;;;;;;2.51;84.64;97981.09;130175;1255;115182;-72
2023/03/09 03:52:36;;;;;;;82.90;41.30;;;;;;;2.52;84.50;97982.62;130343;1269;114724;-74
2023/03/09 03:55:38;;;;;;;89.70;44.70;;;;;;;2.53;84.68;97979.02;130200;1259;114810;-73
2023/03/09 03:58:40;;;;;;;88.30;43.90;;;;;;;2.54;84.59;97982.17;130204;1259;114811;-70
2023/03/09 04:01:42;;;;;;;79.90;41.60;;;;;;;2.55;84.73;97986.38;130285;1259;114773;-72
2023/03/09 04:04:44;;;;;;;85.90;42.50;;;;;;;2.55;84.74;97988.45;130204;1258;128934;-71
2023/03/09 04:07:46;;;;;;;82.40;40.70;;;;;;;2.57;84.66;97991.52;130233;1257;114763;-70
2023/03/09 04:10:48;;;;;;;79.70;40.20;;;;;;;2.60;84.73;97989.27;130294;1259;114738;-72
2023/03/09 04:13:51;;;;;;;72.90;38.90;;;;;;;2.61;84.61;97990.77;130244;1257;114641;-72
2023/03/09 04:16:53;;;;;;;73.10;38.70;;;;;;;2.62;84.68;97991.45;130222;1259;114752;-76
2023/03/09 04:19:55;;;;;;;70.30;37.50;;;;;;;2.60;84.64;97985.89;130228;1259;114821;-72
2023/03/09 04:22:57;;;;;;;71.80;38.80;;;;;;;2.59;84.78;97981.88;129839;1277;114850;-72
2023/03/09 04:26:02;;;;;;;70.20;38.30;;;;;;;2.58;84.81;97977.90;130230;1260;114710;-72
2023/03/09 04:29:04;;;;;;;67.90;36.60;;;;;;;2.56;84.62;97971.13;130032;1265;114715;-73
2023/03/09 04:32:06;;;;;;;73.50;38.50;;;;;;;2.55;84.68;97963.25;130237;1257;115244;-73
2023/03/09 04:35:09;;;;;;;74.70;37.20;;;;;;;2.53;84.81;97957.55;130044;1259;114813;-72
2023/03/09 04:38:12;;;;;;;68.20;37.20;;;;;;;2.52;84.72;97962.02;130297;1257;114769;-73
2023/03/09 04:41:14;;;;;;;77.10;39.50;;;;;;;2.50;84.91;97959.45;130253;1278;114790;-72
2023/03/09 04:44:16;;;;;;;74.20;39.40;;;;;;;2.51;84.82;97961.54;130224;1259;114843;-72
2023/03/09 04:47:18;;;;;;;78.50;39.80;;;;;;;2.52;84.93;97960.58;130297;1257;114814;-71
2023/03/09 04:50:20;;;;;;;77.30;41.10;;;;;;;2.54;84.78;97954.35;130214;1259;115247;-72
2023/03/09 04:53:22;;;;;;;72.60;39.00;;;;;;;2.54;84.91;97950.98;130144;1259;115177;-71
2023/03/09 04:56:25;;;;;;;74.70;38.20;;;;;;;2.52;85.04;97946.83;130224;1260;114763;-71
2023/03/09 04:59:27;;;;;;;71.40;37.20;;;;;;;2.51;85.03;97952.39;130062;1257;114712;-72
2023/03/09 05:02:29;;;;;;;69.10;37.00;;;;;;;2.50;84.98;97952.59;130080;1259;115467;-70
2023/03/09 05:05:31;;;;;;;73.00;39.30;;;;;;;2.51;85.17;97949.02;130231;1259;114811;-73
2023/03/09 05:08:34;;;;;;;74.20;39.50;;;;;;;2.50;85.07;97945.52;130204;1259;128545;-72
2023/03/09 05:11:36;;;;;;;67.20;36.70;;;;;;;2.51;85.05;97943.73;130254;1257;115394;-72
2023/03/09 05:14:38;;;;;;;75.00;38.60;;;;;;;2.50;85.01;97947.84;130253;1263;114833;-73
2023/03/09 05:17:40;;;;;;;72.60;36.90;;;;;;;2.50;85.10;97952.60;130436;1270;115402;-72
2023/03/09 05:20:42;;;;;;;69.40;35.50;;;;;;;2.51;85.18;97939.90;130363;1257;114837;-75
2023/03/09 05:23:44;;;;;;;70.70;36.50;;;;;;;2.49;85.30;97944.91;130310;1259;114722;-73
2023/03/09 05:26:47;;;;;;;73.50;38.00;;;;;;;2.46;85.25;97942.59;130290;1257;115113;-75
2023/03/09 05:29:52;;;;;;;71.90;38.90;;;;;;;2.44;85.13;97942.86;130513;1278;128791;-74
2023/03/09 05:32:54;;;;;;;70.90;37.10;;;;;;;2.43;85.24;97943.09;130292;1257;115263;-73
2023/03/09 05:35:56;;;;;;;72.30;37.20;;;;;;;2.44;85.47;97943.43;130256;1259;114797;-73
2023/03/09 05:39:00;;;;;;;80.90;38.10;;;;;;;2.42;85.34;97943.16;129940;1257;115269;-74
2023/03/09 05:42:02;;;;;;;67.10;34.80;;;;;;;2.42;85.26;97944.05;130465;1260;114766;-74
2023/03/09 05:45:05;;;;;;;73.90;37.00;;;;;;;2.40;85.51;97947.46;130564;1259;115359;-74
2023/03/09 05:48:07;;;;;;;68.60;35.60;;;;;;;2.37;85.38;97945.35;130535;1260;128969;-74
2023/03/09 05:51:10;;;;;;;68.80;34.60;;;;;;;2.34;85.63;97941.13;130618;1260;114760;-74
2023/03/09 05:54:12;;;;;;;298.10;163.00;;;;;;;2.29;85.42;97939.83;130192;1260;114774;-74
2023/03/09 05:57:14;;;;;;;99.10;48.10;;;;;;;2.23;85.61;97939.94;130319;1274;114731;-74
2023/03/09 06:00:17;;;;;;;134.60;72.50;;;;;;;2.18;85.55;97941.64;130525;1257;114722;-74
2023/03/09 06:03:20;;;;;;;64.40;35.90;;;;;;;2.14;85.71;97939.91;130204;1260;114734;-75
2023/03/09 06:06:22;;;;;;;74.00;39.30;;;;;;;2.08;85.82;97942.87;130471;1260;114812;-74
2023/03/09 06:09:25;;;;;;;62.10;34.40;;;;;;;2.03;85.67;97947.35;130481;1259;115422;-74
2023/03/09 06:12:27;;;;;;;65.70;35.70;;;;;;;2.00;86.00;97951.56;130380;1257;115265;-73
2023/03/09 06:15:33;;;;;;;101.60;61.50;;;;;;;1.95;86.22;97947.77;130238;1259;114710;-73
2023/03/09 06:18:35;;;;;;;66.20;35.00;;;;;;;1.94;86.25;97945.70;130002;1278;114762;-73
2023/03/09 06:21:38;;;;;;;58.10;30.20;;;;;;;1.94;86.10;97946.39;130081;1263;114747;-73
2023/03/09 06:24:42;;;;;;;55.80;30.20;;;;;;;1.92;86.45;97948.61;130244;1259;114795;-74
2023/03/09 06:27:44;;;;;;;58.90;31.20;;;;;;;1.88;86.38;97946.39;130078;1260;127850;-73
2023/03/09 06:30:46;;;;;;;65.00;32.90;;;;;;;1.86;86.08;97945.06;130263;1257;114850;-74
2023/03/09 06:33:49;;;;;;;61.10;32.30;;;;;;;1.86;86.22;97947.72;130492;1257;114727;-74
2023/03/09 06:36:51;;;;;;;49.90;26.30;;;;;;;1.85;86.31;97952.88;129957;1262;114818;-74
2023/03/09 06:39:56;;;;;;;60.90;36.10;;;;;;;1.81;86.53;97952.20;130173;1260;114816;-75
2023/03/09 06:42:58;;;;;;;;;;;;;;;1.78;86.55;97954.09;130270;1260;115006;-73
2023/03/09 06:46:00;;;;;;;43.10;24.60;;;;;;;1.78;86.29;97956.23;129944;1257;114664;-73
2023/03/09 06:49:03;;;;;;;45.90;25.70;;;;;;;1.76;86.50;97957.20;130297;1259;114676;-74
2023/03/09 06:52:05;;;;;;;40.90;23.70;;;;;;;1.72;86.46;97963.21;130068;1278;115055;-75
2023/03/09 06:55:08;;;;;;;42.10;21.40;;;;;;;1.67;86.74;97962.39;130557;1257;114820;-74
2023/03/09 06:58:11;;;;;;;41.90;21.80;;;;;;;1.64;86.57;97962.70;130305;1262;114831;-74
2023/03/09 07:01:15;;;;;;;40.00;22.40;;;;;;;1.61;86.53;97958.30;130558;1269;114807;-76
2023/03/09 07:04:17;;;;;;;41.20;24.70;;;;;;;1.61;86.86;97958.32;130337;1260;114771;-76
2023/03/09 07:07:20;;;;;;;38.20;21.90;;;;;;;1.61;86.86;97953.92;129965;1276;115204;-75
2023/03/09 07:10:22;;;;;;;38.00;21.60;;;;;;;1.63;86.99;97954.88;130281;1257;115269;-76
2023/03/09 07:13:26;;;;;;;36.70;21.80;;;;;;;1.66;87.03;97950.31;130294;1261;114900;-76
2023/03/09 07:16:30;;;;;;;41.50;23.70;;;;;;;1.68;87.18;97951.95;130234;1278;115171;-75
2023/03/09 07:19:32;;;;;;;37.70;22.70;;;;;;;1.69;87.10;97954.02;130259;1261;114742;-74
2023/03/09 07:22:34;;;;;;;40.30;23.10;;;;;;;1.71;87.23;97956.23;130030;1257;114776;-76
2023/03/09 07:25:37;;;;;;;37.70;22.10;;;;;;;1.77;87.20;97958.73;130567;1259;114814;-76
2023/03/09 07:28:40;;;;;;;38.80;23.60;;;;;;;1.81;87.14;97966.08;130480;1257;114744;-77
2023/03/09 07:31:42;;;;;;;35.60;22.50;;;;;;;1.83;87.13;97965.27;130337;1260;114768;-76
2023/03/09 07:34:45;;;;;;;42.00;26.60;;;;;;;1.85;87.31;97965.71;130243;1260;114710;-78
2023/03/09 07:37:47;;;;;;;42.90;25.00;;;;;;;1.87;87.25;97966.65;130672;1259;114721;-79
2023/03/09 07:40:50;;;;;;;34.60;21.10;;;;;;;1.87;87.22;97968.27;130611;1260;114773;-78
2023/03/09 07:43:52;;;;;;;40.00;21.90;;;;;;;1.86;87.26;97966.91;129881;1262;114812;-78
2023/03/09 07:46:54;;;;;;;39.60;20.60;;;;;;;1.91;87.13;97962.59;130629;1259;114862;-78
2023/03/09 07:49:58;;;;;;;42.20;21.10;;;;;;;1.98;87.16;97964.85;130460;1258;114823;-78
2023/03/09 07:53:00;;;;;;;38.30;21.70;;;;;;;2.01;87.09;97964.00;130240;1259;114714;-79
2023/03/09 07:56:03;;;;;;;34.90;20.30;;;;;;;2.05;87.19;97964.66;130463;1254;114746;-80
2023/03/09 07:59:06;;;;;;;35.00;20.90;;;;;;;2.09;87.28;97965.34;130592;1259;114708;-79
2023/03/09 08:02:09;;;;;;;30.40;20.00;;;;;;;2.10;87.15;97968.45;130362;1270;114850;-79
2023/03/09 08:05:13;;;;;;;31.90;19.30;;;;;;;2.17;87.34;97974.81;130367;1259;115329;-76
2023/03/09 08:08:16;;;;;;;34.60;22.90;;;;;;;2.16;87.49;97974.11;130342;1270;115157;-79
2023/03/09 08:11:18;;;;;;;32.10;19.80;;;;;;;2.17;87.19;97977.06;130524;1259;115246;-78
2023/03/09 08:14:20;;;;;;;42.90;25.60;;;;;;;2.18;87.21;97974.39;130403;1260;114913;-80
2023/03/09 08:17:23;;;;;;;32.90;21.10;;;;;;;2.21;87.11;97977.05;130499;1257;114818;-78
2023/03/09 08:20:25;;;;;;;30.30;18.30;;;;;;;2.20;87.16;97983.08;130468;1254;114721;-79
2023/03/09 08:23:28;;;;;;;33.70;22.20;;;;;;;2.21;87.19;97984.77;130596;1259;114852;-78
2023/03/09 08:26:30;;;;;;;32.20;19.60;;;;;;;2.24;87.43;97989.91;130258;1257;114760;-77
2023/03/09 08:29:32;;;;;;;29.10;18.00;;;;;;;2.24;87.29;97992.88;130482;1260;114783;-75
2023/03/09 08:32:35;;;;;;;31.20;19.40;;;;;;;2.24;87.39;97991.64;130507;1255;114819;-77
2023/03/09 08:35:37;;;;;;;28.50;18.80;;;;;;;2.29;87.28;97998.49;130088;1262;114880;-77
2023/03/09 08:38:41;;;;;;;30.10;18.60;;;;;;;2.26;87.29;98003.01;130266;1259;114709;-78
2023/03/09 08:41:43;;;;;;;27.70;17.40;;;;;;;2.24;87.09;98008.95;130210;1258;114811;-79
2023/03/09 08:44:46;;;;;;;27.30;17.80;;;;;;;2.19;87.12;98012.20;130469;1257;115239;-77
2023/03/09 08:47:48;;;;;;;30.80;22.10;;;;;;;2.14;87.11;98018.27;130422;1270;114814;-77
2023/03/09 08:50:50;;;;;;;29.30;19.90;;;;;;;2.13;87.10;98025.20;130459;1267;114809;-75
2023/03/09 08:53:52;;;;;;;26.70;18.80;;;;;;;2.19;87.46;98031.60;130219;1267;114768;-76
2023/03/09 08:56:55;;;;;;;33.40;22.20;;;;;;;2.21;87.25;98036.38;130698;1268;114804;-76
2023/03/09 08:59:58;;;;;;;24.70;17.40;;;;;;;2.19;87.22;98046.51;130105;1272;115325;-76
2023/03/09 09:03:00;;;;;;;23.40;16.10;;;;;;;2.18;87.35;98047.98;130646;1258;114818;-78
2023/03/09 09:06:08;;;;;;;24.20;17.30;;;;;;;2.21;87.47;98047.29;130288;1266;114727;-79
2023/03/09 09:09:10;;;;;;;24.20;17.00;;;;;;;2.29;87.79;98056.96;130212;1267;114689;-79
2023/03/09 09:12:12;;;;;;;22.30;15.80;;;;;;;2.32;87.71;98058.86;130475;1264;114981;-76
2023/03/09 09:15:15;;;;;;;20.80;14.90;;;;;;;2.32;87.54;98062.23;130581;1260;114817;-79
2023/03/09 09:18:17;;;;;;;18.30;14.10;;;;;;;2.33;87.42;98068.89;130284;1260;115198;-77
2023/03/09 09:21:20;;;;;;;18.70;14.10;;;;;;;2.35;87.58;98073.52;130511;1260;114726;-78
2023/03/09 09:24:22;;;;;;;20.80;15.30;;;;;;;2.39;87.53;98082.30;130486;1260;137073;-76
2023/03/09 09:27:24;;;;;;;23.10;15.70;;;;;;;2.42;87.63;98087.27;130184;1260;114654;-75
2023/03/09 09:30:27;;;;;;;19.80;13.50;;;;;;;2.48;87.91;98093.13;130477;1260;115236;-77
2023/03/09 09:33:31;;;;;;;20.60;15.30;;;;;;;2.55;87.81;98098.77;130531;1255;114776;-74
2023/03/09 09:36:34;;;;;;;19.20;14.90;;;;;;;2.64;87.86;98100.92;130569;1261;114732;-77
2023/03/09 09:39:37;;;;;;;19.60;14.50;;;;;;;2.70;87.62;98103.58;130525;1265;114779;-78
2023/03/09 09:42:43;;;;;;;17.40;13.50;;;;;;;2.70;87.34;98107.14;130506;1260;115430;-78
2023/03/09 09:45:46;;;;;;;19.00;13.60;;;;;;;2.69;87.29;98118.99;130282;1260;114883;-77
2023/03/09 09:48:49;;;;;;;18.70;13.70;;;;;;;2.72;87.33;98123.41;130525;1259;114735;-77
2023/03/09 09:52:01;;;;;;;21.50;14.40;;;;;;;2.75;87.34;98117.81;130537;1260;114734;-78
2023/03/09 09:55:06;;;;;;;21.70;14.40;;;;;;;2.76;87.32;98133.63;130533;1255;128731;-79
2023/03/09 09:58:11;;;;;;;;;;;;;;;2.84;87.56;98145.02;130490;1267;114783;-79
2023/03/09 10:01:23;;;;;;;18.40;13.30;;;;;;;2.86;87.38;98148.79;130514;1267;115228;-78
2023/03/09 10:04:33;;;;;;;20.50;15.30;;;;;;;2.83;87.23;98173.58;130476;1255;114714;-77
2023/03/09 10:07:36;;;;;;;19.00;13.80;;;;;;;2.84;87.11;98191.19;130532;1277;114818;-76
2023/03/09 10:10:39;;;;;;;18.90;13.60;;;;;;;2.76;86.85;98188.44;130323;1260;127880;-77
2023/03/09 10:13:46;;;;;;;20.40;13.70;;;;;;;2.73;86.92;98199.86;130503;1260;114746;-78
2023/03/09 10:16:56;;;;;;;22.60;14.30;;;;;;;2.77;87.27;98217.97;130501;1256;114650;-78
2023/03/09 10:20:09;;;;;;;18.50;13.50;;;;;;;2.80;87.09;98224.20;130167;1270;114781;-79
2023/03/09 10:23:27;;;;;;;16.60;13.00;;;;;;;2.74;86.86;98228.73;130375;1260;115356;-78
2023/03/09 10:26:56;;;;;;;18.60;14.50;;;;;;;2.71;87.01;98240.13;130589;1260;129002;-78
2023/03/09 10:30:07;;;;;;;18.70;13.30;;;;;;;2.77;87.47;98242.15;130151;1264;115227;-80
2023/03/09 10:33:17;;;;;;;18.20;13.40;;;;;;;2.84;87.37;98250.95;130197;1262;114757;-80
2023/03/09 10:36:32;;;;;;;17.80;12.70;;;;;;;2.87;87.41;98262.07;130575;1267;114714;-77
2023/03/09 10:39:41;;;;;;;19.80;14.50;;;;;;;2.91;87.41;98262.94;130492;1267;114744;-77
2023/03/09 10:42:45;;;;;;;19.50;15.30;;;;;;;2.98;87.50;98271.25;130371;1270;128838;-79
2023/03/09 10:45:47;;;;;;;19.00;15.30;;;;;;;3.00;87.30;98274.66;130163;1268;115160;-77
2023/03/09 10:49:10;;;;;;;19.60;13.60;;;;;;;2.99;87.03;98287.73;130276;1258;115445;-77
2023/03/09 10:52:18;;;;;;;17.20;12.70;;;;;;;2.96;87.00;98300.40;130232;1258;114729;-77
2023/03/09 10:55:27;;;;;;;19.50;14.20;;;;;;;2.95;87.12;98313.88;130224;1260;114751;-79
2023/03/09 10:58:29;;;;;;;17.70;13.40;;;;;;;3.02;87.44;98311.39;129857;1281;128982;-78
2023/03/09 11:01:35;;;;;;;17.10;13.50;;;;;;;3.07;87.44;98317.68;130104;1280;114818;-76
2023/03/09 11:04:39;;;;;;;23.20;15.40;;;;;;;3.11;87.31;98318.19;129844;1263;114840;-75
2023/03/09 11:07:41;;;;;;;21.70;14.10;;;;;;;3.16;87.46;98323.23;130187;1257;114736;-77
2023/03/09 11:10:44;;;;;;;18.20;13.00;;;;;;;3.27;87.77;98332.01;130192;1264;114865;-80
2023/03/09 11:13:47;;;;;;;19.20;14.10;;;;;;;3.35;87.58;98339.90;130445;1271;114756;-78
2023/03/09 11:16:51;;;;;;;16.40;12.50;;;;;;;3.36;87.41;98348.13;129982;1263;128711;-78
2023/03/09 11:20:12;;;;;;;17.70;13.20;;;;;;;3.38;87.44;98352.64;130570;1260;114746;-77
2023/03/09 11:23:43;;;;;;;15.70;12.40;;;;;;;3.42;87.60;98359.11;130311;1270;114738;-76
2023/03/09 11:27:08;;;;;;;17.10;10.90;;;;;;;3.47;87.65;98363.08;130242;1258;115094;-77
2023/03/09 11:30:17;;;;;;;13.20;10.70;;;;;;;3.49;87.46;98368.98;130138;1271;114738;-76
2023/03/09 11:33:19;;;;;;;12.90;10.00;;;;;;;3.55;87.64;98382.29;130249;1280;127305;-80
2023/03/09 11:36:32;;;;;;;11.90;9.90;;;;;;;3.61;87.56;98384.81;130232;1271;114834;-65
2023/03/09 11:40:24;;;;;;;14.00;10.20;;;;;;;3.61;86.97;98393.96;129946;1262;115104;-66
2023/03/09 11:43:29;;;;;;;22.10;15.80;;;;;;;3.65;87.23;98403.27;129280;1277;114898;-67
2023/03/09 11:46:32;;;;;;;20.60;15.70;;;;;;;3.67;87.03;98418.17;129137;1265;114964;-66
2023/03/09 11:49:35;;;;;;;19.90;15.40;;;;;;;3.73;87.27;98423.20;129295;1280;114944;-65
2023/03/09 11:52:48;;;;;;;20.10;16.00;;;;;;;3.74;86.70;98429.85;129324;1285;115019;-65
2023/03/09 11:55:57;;;;;;;23.90;18.00;;;;;;;3.74;87.04;98444.65;128805;1270;114928;-65
2023/03/09 11:59:11;;;;;;;17.60;14.20;;;;;;;3.76;86.89;98454.46;129322;1287;114942;-65
2023/03/09 12:02:33;;;;;;;18.00;14.40;;;;;;;3.77;86.77;98452.81;129390;1264;116463;-66
2023/03/09 12:05:39;;;;;;;19.60;14.40;;;;;;;3.76;86.66;98462.39;129283;1280;128882;-66
2023/03/09 12:08:43;;;;;;;17.60;12.70;;;;;;;3.75;86.62;98465.79;129366;1270;114914;-67
2023/03/09 12:12:16;;;;;;;15.00;11.70;;;;;;;3.72;86.22;98462.79;129354;1269;115013;-68
2023/03/09 12:16:00;;;;;;;19.10;15.50;;;;;;;3.71;86.39;98475.91;129325;1277;114802;-66
2023/03/09 12:19:13;;;;;;;19.30;13.30;;;;;;;3.75;86.53;98478.14;128852;1273;114941;-67
2023/03/09 12:22:20;;;;;;;15.50;12.30;;;;;;;3.82;86.76;98481.87;129098;1269;127853;-66
2023/03/09 12:25:23;;;;;;;21.00;15.70;;;;;;;3.80;86.44;98478.97;129281;1280;115195;-67
2023/03/09 12:28:25;;;;;;;29.20;19.00;;;;;;;3.75;85.83;98487.32;129299;1279;114867;-68
2023/03/09 12:31:30;;;;;;;30.70;19.10;;;;;;;3.77;86.39;98496.44;129357;1283;115220;-71
2023/03/09 12:34:40;;;;;;;19.90;13.50;;;;;;;3.82;86.52;98500.06;129242;1287;114735;-71
2023/03/09 12:37:45;;;;;;;18.70;14.00;;;;;;;3.81;86.23;98492.36;129341;1288;128838;-73
2023/03/09 12:40:49;;;;;;;22.10;14.80;;;;;;;3.73;85.89;98501.21;129389;1278;115420;-75
2023/03/09 12:43:51;;;;;;;18.90;14.00;;;;;;;3.72;86.14;98504.99;129302;1281;114863;-74
2023/03/09 12:47:02;;;;;;;17.60;13.00;;;;;;;3.75;86.29;98511.16;129354;1287;114854;-75
2023/03/09 12:50:21;;;;;;;16.60;12.60;;;;;;;3.78;86.38;98520.91;129493;1285;114962;-74
2023/03/09 12:53:25;;;;;;;16.10;12.10;;;;;;;3.78;86.16;98520.02;129499;1267;128880;-74
2023/03/09 12:56:28;;;;;;;16.50;13.70;;;;;;;3.79;86.09;98518.23;130259;1261;114840;-75
2023/03/09 12:59:31;;;;;;;18.30;13.20;;;;;;;3.75;85.87;98528.27;130171;1270;114802;-75
2023/03/09 13:02:34;;;;;;;20.10;14.60;;;;;;;3.76;86.24;98532.33;130157;1261;115251;-73
2023/03/09 13:05:48;;;;;;;18.10;14.60;;;;;;;3.83;86.29;98539.21;130124;1277;114700;-75
2023/03/09 13:09:05;;;;;;;17.50;13.30;;;;;;;3.88;86.43;98550.10;130276;1259;128444;-74
2023/03/09 13:12:29;;;;;;;18.90;14.60;;;;;;;3.95;86.42;98551.89;130110;1260;115080;-75
2023/03/09 13:15:31;;;;;;;20.40;15.20;;;;;;;4.02;86.63;98554.49;130126;1254;114742;-74
2023/03/09 13:18:33;;;;;;;20.60;15.20;;;;;;;4.09;86.48;98554.52;130201;1254;115167;-74
2023/03/09 13:21:39;;;;;;;23.50;15.50;;;;;;;4.14;86.34;98560.98;130241;1260;114728;-75
2023/03/09 13:24:42;;;;;;;21.20;15.20;;;;;;;4.17;86.22;98568.40;130021;1259;268371;-74
2023/03/09 13:27:44;;;;;;;21.20;15.90;;;;;;;4.20;86.25;98565.98;130187;1260;114647;-76
2023/03/09 13:30:48;;;;;;;19.70;15.00;;;;;;;4.22;86.22;98560.52;130222;1254;115217;-74
2023/03/09 13:33:50;;;;;;;21.10;15.70;;;;;;;4.22;85.98;98562.11;130191;1257;114827;-74
2023/03/09 13:36:54;;;;;;;20.80;15.10;;;;;;;4.17;85.73;98563.79;130169;1259;114739;-74
2023/03/09 13:40:28;;;;;;;18.10;11.90;;;;;;;4.14;85.86;98574.55;130250;1277;115288;-73
2023/03/09 13:43:33;;;;;;;20.90;15.30;;;;;;;4.14;85.76;98575.80;130239;1254;128753;-73
2023/03/09 13:46:35;;;;;;;21.20;16.10;;;;;;;4.12;85.75;98577.17;130246;1254;114827;-74
2023/03/09 13:49:37;;;;;;;21.50;16.80;;;;;;;4.15;86.19;98584.95;130086;1260;115170;-74
2023/03/09 13:53:00;;;;;;;25.20;17.60;;;;;;;4.21;86.12;98588.86;130219;1260;116027;-73
2023/03/09 13:56:06;;;;;;;25.30;18.70;;;;;;;4.28;86.21;98596.86;130076;1261;114806;-73
2023/03/09 13:59:13;;;;;;;24.10;17.10;;;;;;;4.32;86.15;98587.28;130215;1259;115164;-74
2023/03/09 14:02:15;;;;;;;25.10;17.00;;;;;;;4.28;85.63;98594.90;130054;1278;127705;-73